^^
Station Historical Data
Daily Summary for December 28, 2017 Units:  Metric    English   Both
« Previous Day
Next Day »
Daily Weekly Monthly Yearly Custom
  High: Low: Average:
Temperature: -17.8 °C 23.6 °C 28.9 °C
Dew Point: -17.8 °C -16.5 °C -1.6 °C
Humidity: Humidity% 3% 15%
Wind Speed: 0km/h 9.7km/h 17.2km/h
Wind Gust: 0km/h - -
Wind- - SSW
Pressure: 0 hPa 1003.6 hPa -
Precipitation: 0 mm    
Historical Graphs
 
 
Tabular Data for December 28, 2017
Time Temperature Dew Point Pressure Wind Wind Speed Wind Gust Humidity Rainfall Rate (Hourly) solar Conditions
-17.8 °C -17.8 °C 0 hPa Calm     Humidity% 0 mm SolarRadiationWatts/m^2 W/m2 Conditions
14:43 34.6 °C -13.3 °C 1005 hPa SSW 16.3 km/h 17.7 km/h 4% 0 mm 909.0 W/m2
14:55 35 °C -16.5 °C 1005 hPa SW 17.7 km/h 27.4 km/h 3% 0 mm 877.0 W/m2
15:06 35.1 °C -13 °C 1005 hPa SSW 24.1 km/h 24.1 km/h 4% 0 mm 854.0 W/m2
15:16 35.2 °C -12.9 °C 1004.6 hPa SSW 11.1 km/h 17.7 km/h 4% 0 mm 828.0 W/m2
15:25 35.3 °C -12.8 °C 1004.6 hPa SSW 24.1 km/h 29 km/h 4% 0 mm 812.0 W/m2
15:34 35.4 °C -12.8 °C 1004.6 hPa SSW 9.7 km/h 24.1 km/h 4% 0 mm 782.0 W/m2
15:43 35.2 °C -10.1 °C 1004.6 hPa SSW 22.7 km/h 24.1 km/h 5% 0 mm 756.0 W/m2
15:50 35.2 °C -10.1 °C 1004.6 hPa SSW 20.9 km/h 24.1 km/h 5% 0 mm 740.0 W/m2
16:33 35.3 °C -7.7 °C 1003.9 hPa SSW 17.7 km/h 32.2 km/h 6% 0 mm 617.0 W/m2
16:43 35.3 °C -5.7 °C 1003.9 hPa South 22.7 km/h 27.4 km/h 7% 0 mm 589.0 W/m2
16:56 35.2 °C -5.8 °C 1003.9 hPa SSW 14.3 km/h 24.1 km/h 7% 0 mm 543.0 W/m2
17:44 35.5 °C -3.8 °C 1003.6 hPa SW 19.5 km/h 29 km/h 8% 0 mm 385.0 W/m2
17:57 35.1 °C -2.5 °C 1003.6 hPa SSW 27.4 km/h 29 km/h 9% 0 mm 338.0 W/m2
18:06 35 °C -2.6 °C 1003.9 hPa SW 20.9 km/h 25.7 km/h 9% 0 mm 297.0 W/m2
18:19 34.8 °C -2.7 °C 1003.9 hPa SSW 25.9 km/h 27.4 km/h 9% 0 mm 262.0 W/m2
18:31 34.3 °C -3.1 °C 1003.9 hPa SSW 32 km/h 32.2 km/h 9% 0 mm 199.0 W/m2
18:41 34.1 °C -3.3 °C 1003.9 hPa SSW 20.9 km/h 27.4 km/h 9% 0 mm 163.0 W/m2
18:47 34.1 °C -3.3 °C 1003.9 hPa SSW 25.9 km/h 25.9 km/h 9% 0 mm 135.0 W/m2
19:15 33.3 °C -2.4 °C 1004.3 hPa SSW 25.9 km/h 27.4 km/h 10% 0 mm 37.0 W/m2
19:39 32.4 °C -3.1 °C 1004.6 hPa SSW 17.7 km/h 24.1 km/h 10% 0 mm 9.0 W/m2
19:49 32.1 °C -3.4 °C 1004.6 hPa SSW 14.3 km/h 24.1 km/h 10% 0 mm 0.0 W/m2
20:00 31.8 °C -2.3 °C 1004.6 hPa SSW 9.7 km/h 14.5 km/h 11% 0 mm 0.0 W/m2
20:09 31.5 °C -2.5 °C 1005 hPa SSW 16.3 km/h 17.7 km/h 11% 0 mm 0.0 W/m2
20:21 31.3 °C -2.7 °C 1005 hPa SSW 13 km/h 16.1 km/h 11% 0 mm 0.0 W/m2
20:34 30.8 °C 0.2 °C 1005.3 hPa SSW 20.9 km/h 22.5 km/h 14% 0 mm 0.0 W/m2
20:43 29.9 °C 3 °C 1005.6 hPa SSW 20.9 km/h 29 km/h 18% 0 mm 0.0 W/m2
20:51 29.4 °C 3.4 °C 1005.6 hPa SSW 17.7 km/h 30.6 km/h 19% 0 mm 0.0 W/m2
20:56 29 °C 3.8 °C 1005.6 hPa SSW 17.7 km/h 25.7 km/h 20% 0 mm 0.0 W/m2
21:01 28.7 °C 4.2 °C 1005.6 hPa SSW 17.7 km/h 20.9 km/h 21% 0 mm 0.0 W/m2
21:06 28.4 °C 4 °C 1006 hPa SSW 19.5 km/h 24.1 km/h 21% 0 mm 0.0 W/m2
21:13 28.2 °C 3.8 °C 1006 hPa SSW 16.3 km/h 25.7 km/h 21% 0 mm 0.0 W/m2
21:18 28.1 °C 3.7 °C 1006 hPa SSW 13 km/h 25.7 km/h 21% 0 mm 0.0 W/m2
21:29 27.8 °C 4.1 °C 1006 hPa SSW 14.3 km/h 20.9 km/h 22% 0 mm 0.0 W/m2
21:38 27.3 °C 4.3 °C 1006.3 hPa SSW 13 km/h 22.5 km/h 23% 0 mm 0.0 W/m2
21:46 27 °C 4.7 °C 1006.7 hPa SSW 16.3 km/h 20.9 km/h 24% 0 mm 0.0 W/m2
21:52 26.8 °C 4.5 °C 1006.7 hPa SSW 14.3 km/h 19.3 km/h 24% 0 mm 0.0 W/m2
22:01 26.5 °C 4.3 °C 1006.7 hPa SSW 9.7 km/h 19.3 km/h 24% 0 mm 0.0 W/m2
22:11 26.1 °C 3.3 °C 1007 hPa SSW 11.1 km/h 19.3 km/h 23% 0 mm 0.0 W/m2
22:16 25.9 °C 3.2 °C 1007 hPa SSW 16.3 km/h 19.3 km/h 23% 0 mm 0.0 W/m2
22:22 25.8 °C 2.5 °C 1007 hPa SSW 16.3 km/h 19.3 km/h 22% 0 mm 0.0 W/m2
22:32 25.6 °C 1.6 °C 1007 hPa SSW 14.3 km/h 22.5 km/h 21% 0 mm 0.0 W/m2
22:37 25.4 °C 1.5 °C 1007 hPa SSW 14.3 km/h 19.3 km/h 21% 0 mm 0.0 W/m2
22:42 25.2 °C 1.3 °C 1007 hPa SSW 16.3 km/h 17.7 km/h 21% 0 mm 0.0 W/m2
22:47 25.1 °C 1.2 °C 1007 hPa SSW 16.3 km/h 20.9 km/h 21% 0 mm 0.0 W/m2
22:57 24.8 °C 1.6 °C 1007.3 hPa SSW 17.7 km/h 19.3 km/h 22% 0 mm 0.0 W/m2
23:02 24.7 °C 1.6 °C 1007.3 hPa SSW 14.3 km/h 16.1 km/h 22% 0 mm 0.0 W/m2
23:07 24.6 °C 2.1 °C 1007.3 hPa SSW 14.3 km/h 20.9 km/h 23% 0 mm 0.0 W/m2
23:12 24.5 °C 2.6 °C 1007.3 hPa SSW 11.1 km/h 16.1 km/h 24% 0 mm 0.0 W/m2
23:17 24.3 °C 2.4 °C 1007.3 hPa SSW 16.3 km/h 16.3 km/h 24% 0 mm 0.0 W/m2
23:22 24.3 °C 2.4 °C 1007.3 hPa South 20.9 km/h 22.5 km/h 24% 0 mm 0.0 W/m2
23:32 24.1 °C 1.7 °C 1007.3 hPa South 17.7 km/h 22.5 km/h 23% 0 mm 0.0 W/m2
23:37 24 °C 1.6 °C 1007.3 hPa South 16.3 km/h 17.7 km/h 23% 0 mm 0.0 W/m2
23:42 23.8 °C 2 °C 1007.3 hPa South 16.3 km/h 20.9 km/h 24% 0 mm 0.0 W/m2
23:47 23.7 °C 1.9 °C 1007.3 hPa South 14.3 km/h 19.3 km/h 24% 0 mm 0.0 W/m2
23:52 23.6 °C 1.8 °C 1007.3 hPa South 17.7 km/h 19.3 km/h 24% 0 mm 0.0 W/m2
Canyon Roadhouse, Fishriver Canyon, Namibia
Compliments of Weather Underground - 1.75 mb